Advocate Harbour, Canada
Current Conditions -  °F | °C
As of 5:00 AM on Monday 20 Oct 2014 (Local Time) from CYZX Reporting Station
Overcast Overcast  
Wind Chill: 33°   Ceiling: 3200
Heat Index: 41°   Visibility: 12mi
Dew Point: 36°   Wind: 15mph
Humidity: 81%   Direction: 290°WNW
Pressure: 29.68"   Gusts: 21mph
Location:  45.33°N, 64.78°W
Report Text: CYZX 200800Z 29013G18KT 12SM OVC032 05/02 A2968 RMK SC8 WNDY HILL 32016G25KT SLP050
Loading
Personal Weather Stations






























Interactive Weather Map
Tropical Storm Tracking
New forecast layout! Learn more

10-Day Weather Forecast

Advertisements
Track Severe Weather on mobile